createdAt,value
2018-03-20T00:00:40.624Z,90.80
2018-03-20T00:03:10.220Z,90.70
2018-03-20T00:05:39.829Z,90.40
2018-03-20T00:08:09.323Z,90.40
2018-03-20T00:10:38.803Z,90.30
2018-03-20T00:13:08.443Z,89.50
2018-03-20T00:15:38.052Z,89.30
2018-03-20T00:18:07.715Z,88.70
2018-03-20T00:20:37.898Z,88.90
2018-03-20T00:23:07.621Z,89.60
2018-03-20T00:25:37.416Z,90.60
2018-03-20T00:28:07.229Z,91.30
2018-03-20T00:30:39.267Z,91.40
2018-03-20T00:33:09.309Z,91.30
2018-03-20T00:35:39.568Z,91.00
2018-03-20T00:38:13.267Z,90.60
2018-03-20T00:40:44.073Z,89.70
2018-03-20T00:43:14.184Z,89.00
2018-03-20T00:45:46.640Z,88.50
2018-03-20T00:48:16.746Z,88.40
2018-03-20T00:50:47.373Z,88.00
2018-03-20T00:53:17.663Z,87.90
2018-03-20T00:55:48.311Z,87.80
2018-03-20T00:58:18.838Z,88.30
2018-03-20T01:00:48.610Z,88.20
2018-03-20T01:03:18.120Z,88.40
2018-03-20T01:05:48.850Z,88.90
2018-03-20T01:08:18.445Z,88.30
2018-03-20T01:10:48.084Z,88.50
2018-03-20T01:13:17.723Z,88.30
2018-03-20T01:15:47.308Z,88.10
2018-03-20T01:18:16.873Z,87.90
2018-03-20T01:20:46.771Z,87.90
2018-03-20T01:23:17.012Z,88.70
2018-03-20T01:25:46.529Z,88.70
2018-03-20T01:28:17.169Z,88.70
2018-03-20T01:30:47.032Z,88.70
2018-03-20T01:33:17.392Z,88.60
2018-03-20T01:35:46.922Z,88.50
2018-03-20T01:38:16.387Z,88.70
2018-03-20T01:40:46.110Z,88.50
2018-03-20T01:43:15.740Z,88.00
2018-03-20T01:45:46.277Z,88.70
2018-03-20T01:48:15.856Z,88.30
2018-03-20T01:50:45.564Z,87.90
2018-03-20T01:53:20.576Z,88.10
2018-03-20T01:55:51.015Z,89.60
2018-03-20T01:58:21.654Z,89.60
2018-03-20T02:00:52.009Z,89.80
2018-03-20T02:03:21.550Z,89.80
2018-03-20T02:05:51.024Z,89.10
2018-03-20T02:08:20.530Z,88.60
2018-03-20T02:10:50.903Z,89.10
2018-03-20T02:13:20.809Z,89.00
2018-03-20T02:15:51.192Z,90.90
2018-03-20T02:18:20.692Z,90.80
2018-03-20T02:20:50.314Z,91.30
2018-03-20T02:23:19.909Z,92.00
2018-03-20T02:25:49.940Z,92.70
2018-03-20T02:28:19.546Z,93.10
2018-03-20T02:30:49.397Z,93.50
2018-03-20T02:33:19.178Z,93.80
2018-03-20T02:35:49.243Z,93.90
2018-03-20T02:38:18.909Z,93.80
2018-03-20T02:40:49.441Z,94.20
2018-03-20T02:43:18.901Z,94.20
2018-03-20T02:45:48.656Z,94.20
2018-03-20T02:48:19.055Z,94.30
2018-03-20T02:50:48.510Z,94.40
2018-03-20T02:53:18.082Z,94.70
2018-03-20T02:55:47.660Z,94.20
2018-03-20T02:58:18.135Z,93.50
2018-03-20T03:00:47.851Z,93.50
2018-03-20T03:03:17.430Z,93.40
2018-03-20T03:05:46.945Z,93.30
2018-03-20T03:08:16.934Z,93.10
2018-03-20T03:10:46.624Z,93.00
2018-03-20T03:13:17.153Z,93.30
2018-03-20T03:15:46.629Z,93.30
2018-03-20T03:18:16.123Z,93.90
2018-03-20T03:20:47.417Z,93.70
2018-03-20T03:23:20.235Z,94.20
2018-03-20T03:25:49.982Z,94.10
2018-03-20T03:28:19.757Z,94.30
2018-03-20T03:30:49.316Z,94.20
2018-03-20T03:33:19.439Z,94.00
2018-03-20T03:35:48.956Z,94.00
2018-03-20T03:38:19.536Z,94.20
2018-03-20T03:40:49.859Z,94.20
2018-03-20T03:43:19.494Z,94.20
2018-03-20T03:45:50.587Z,94.20
2018-03-20T03:48:20.774Z,94.20
2018-03-20T03:50:51.034Z,94.20
2018-03-20T03:53:20.851Z,94.20
2018-03-20T03:55:50.374Z,94.20
2018-03-20T03:58:21.733Z,94.20
2018-03-20T04:00:51.533Z,94.20
2018-03-20T04:03:21.334Z,94.20
2018-03-20T04:05:50.831Z,94.10
2018-03-20T04:08:21.656Z,94.00
2018-03-20T04:10:51.935Z,94.00
2018-03-20T04:13:22.388Z,93.90
2018-03-20T04:15:52.670Z,93.90
2018-03-20T04:18:22.427Z,94.00
2018-03-20T04:20:52.193Z,93.90
2018-03-20T04:23:21.674Z,93.80
2018-03-20T04:25:51.525Z,94.10
2018-03-20T04:28:21.364Z,94.10
2018-03-20T04:30:51.699Z,94.70
2018-03-20T04:33:21.361Z,94.70
2018-03-20T04:35:51.111Z,95.10
2018-03-20T04:38:20.712Z,94.80
2018-03-20T04:40:51.111Z,94.70
2018-03-20T04:43:20.815Z,94.70
2018-03-20T04:45:50.321Z,94.10
2018-03-20T04:48:19.945Z,93.20
2018-03-20T04:50:49.725Z,92.80
2018-03-20T04:53:19.556Z,93.00
2018-03-20T04:55:49.043Z,92.60
2018-03-20T04:58:18.785Z,92.90
2018-03-20T05:00:48.372Z,93.30
2018-03-20T05:03:17.971Z,93.70
2018-03-20T05:05:47.733Z,94.20
2018-03-20T05:08:17.408Z,94.50
2018-03-20T05:10:46.883Z,94.80
2018-03-20T05:13:17.553Z,95.10
2018-03-20T05:15:47.147Z,95.10
2018-03-20T05:18:16.703Z,95.30
2018-03-20T05:23:50.906Z,95.40
2018-03-20T05:26:20.712Z,95.60
2018-03-20T05:28:50.387Z,95.50
2018-03-20T05:31:21.062Z,95.10
2018-03-20T05:33:50.599Z,95.10
2018-03-20T05:36:21.119Z,95.90
2018-03-20T05:38:52.530Z,95.10
2018-03-20T05:41:22.120Z,95.10
2018-03-20T05:43:52.177Z,95.10
2018-03-20T05:46:22.080Z,95.10
2018-03-20T05:48:52.382Z,95.20
2018-03-20T05:54:26.313Z,94.50
2018-03-20T05:56:55.876Z,94.30
2018-03-20T05:59:26.314Z,93.60
2018-03-20T06:01:56.296Z,93.60
2018-03-20T06:04:25.994Z,94.10
2018-03-20T06:06:56.020Z,94.30
2018-03-20T06:09:25.628Z,94.00
2018-03-20T06:11:55.231Z,94.30
2018-03-20T06:14:25.224Z,94.50
2018-03-20T06:16:54.871Z,94.50
2018-03-20T06:19:24.392Z,94.60
2018-03-20T06:21:54.256Z,94.40
2018-03-20T06:24:23.731Z,94.10
2018-03-20T06:26:54.553Z,94.50
2018-03-20T06:29:26.265Z,94.50
2018-03-20T06:31:55.999Z,94.50
2018-03-20T06:34:25.572Z,94.50
2018-03-20T06:36:56.235Z,94.80
2018-03-20T06:39:25.944Z,94.80
2018-03-20T06:41:55.608Z,95.00
2018-03-20T06:44:26.648Z,94.60
2018-03-20T06:46:56.406Z,94.60
2018-03-20T06:49:26.116Z,94.30
2018-03-20T06:51:55.851Z,93.60
2018-03-20T06:54:25.529Z,93.20
2018-03-20T06:56:55.482Z,92.80
2018-03-20T06:59:25.036Z,92.60
2018-03-20T07:01:54.992Z,92.10
2018-03-20T07:04:24.501Z,92.70
2018-03-20T07:06:54.054Z,93.30
2018-03-20T07:09:23.801Z,93.20
2018-03-20T07:11:53.261Z,91.80
2018-03-20T07:14:22.809Z,90.40
2018-03-20T07:16:52.494Z,91.70
2018-03-20T07:19:22.130Z,90.70
2018-03-20T07:21:56.338Z,84.80
2018-03-20T07:24:25.791Z,83.00
2018-03-20T07:26:55.462Z,83.10
2018-03-20T07:29:25.216Z,82.80
2018-03-20T07:31:56.163Z,82.80
2018-03-20T07:34:26.701Z,85.20
2018-03-20T07:36:56.835Z,85.10
2018-03-20T07:39:38.494Z,84.10
2018-03-20T07:42:14.334Z,83.30
2018-03-20T07:44:45.436Z,85.30
2018-03-20T07:47:15.772Z,83.10
2018-03-20T07:49:47.036Z,82.70
2018-03-20T07:52:20.898Z,82.90
2018-03-20T07:54:51.457Z,82.80
2018-03-20T07:57:20.942Z,82.00
2018-03-20T07:59:50.576Z,83.40
2018-03-20T08:02:20.134Z,82.50
2018-03-20T08:04:49.896Z,81.50
2018-03-20T08:07:21.939Z,82.70
2018-03-20T08:09:53.154Z,81.30
2018-03-20T08:12:23.615Z,80.10
2018-03-20T08:14:53.332Z,80.10
2018-03-20T08:17:22.853Z,81.90
2018-03-20T08:19:52.397Z,80.80
2018-03-20T08:22:21.920Z,82.00
2018-03-20T08:24:52.849Z,77.90
2018-03-20T08:27:22.523Z,77.90
2018-03-20T08:29:52.216Z,78.20
2018-03-20T08:32:21.677Z,80.40
2018-03-20T08:34:52.247Z,81.00
2018-03-20T08:37:22.750Z,82.30
2018-03-20T08:39:54.027Z,82.00
2018-03-20T08:42:23.665Z,81.90
2018-03-20T08:44:54.041Z,82.20
2018-03-20T08:47:24.432Z,82.50
2018-03-20T08:49:54.794Z,82.70
2018-03-20T08:52:24.326Z,82.70
2018-03-20T08:54:54.618Z,82.20
2018-03-20T08:57:26.459Z,82.20
2018-03-20T08:59:56.047Z,82.10
2018-03-20T09:02:26.926Z,83.20
2018-03-20T09:04:56.392Z,80.50
2018-03-20T09:07:26.969Z,80.00
2018-03-20T09:09:56.956Z,80.00
2018-03-20T09:12:26.690Z,81.40
2018-03-20T09:14:57.182Z,81.70
2018-03-20T09:17:26.820Z,81.50
2018-03-20T09:19:57.505Z,79.20
2018-03-20T09:22:27.253Z,79.20
2018-03-20T09:24:57.008Z,81.10
2018-03-20T09:27:26.619Z,79.90
2018-03-20T09:29:56.282Z,80.80
2018-03-20T09:32:26.046Z,78.90
2018-03-20T09:34:55.572Z,81.50
2018-03-20T09:37:26.213Z,78.80
2018-03-20T09:39:56.871Z,78.50
2018-03-20T09:42:26.446Z,78.50
2018-03-20T09:44:56.230Z,78.60
2018-03-20T09:47:25.814Z,78.70
2018-03-20T09:49:55.384Z,79.70
2018-03-20T09:52:26.903Z,79.20
2018-03-20T09:54:56.852Z,79.20
2018-03-20T09:57:27.345Z,79.80
2018-03-20T09:59:57.755Z,79.70
2018-03-20T10:02:27.488Z,79.70
2018-03-20T10:04:57.406Z,79.50
2018-03-20T10:07:32.641Z,79.00
2018-03-20T10:10:04.831Z,78.90
2018-03-20T10:12:38.863Z,78.80
2018-03-20T10:15:08.684Z,78.00
2018-03-20T10:17:38.411Z,77.70
2018-03-20T10:20:07.970Z,76.90
2018-03-20T10:22:37.478Z,77.60
2018-03-20T10:25:07.013Z,75.20
2018-03-20T10:27:36.612Z,75.60
2018-03-20T10:30:06.228Z,75.60
2018-03-20T10:32:35.973Z,75.60
2018-03-20T10:35:14.605Z,75.60
2018-03-20T10:37:45.130Z,75.00
2018-03-20T10:40:14.649Z,74.90
2018-03-20T10:42:44.262Z,76.70
2018-03-20T10:45:13.981Z,76.70
2018-03-20T10:47:43.663Z,73.80
2018-03-20T10:50:13.120Z,70.90
2018-03-20T10:52:42.791Z,73.30
2018-03-20T10:55:12.291Z,71.90
2018-03-20T10:57:41.760Z,74.00
2018-03-20T11:00:12.127Z,70.70
2018-03-20T11:02:47.374Z,70.60
2018-03-20T11:05:16.898Z,69.90
2018-03-20T11:07:47.367Z,68.50
2018-03-20T11:10:16.989Z,68.50
2018-03-20T11:12:47.237Z,69.10
2018-03-20T11:15:16.816Z,69.70
2018-03-20T11:17:46.862Z,70.20
2018-03-20T11:20:16.577Z,70.30
2018-03-20T11:22:46.288Z,68.80
2018-03-20T11:25:16.495Z,69.60
2018-03-20T11:27:45.974Z,70.80
2018-03-20T11:30:15.729Z,69.70
2018-03-20T11:32:45.472Z,70.50
2018-03-20T11:35:16.116Z,69.90
2018-03-20T11:37:45.985Z,69.90
2018-03-20T11:40:15.586Z,70.10
2018-03-20T11:42:46.002Z,69.80
2018-03-20T11:45:15.731Z,69.70
2018-03-20T11:47:45.403Z,70.00
2018-03-20T11:50:16.173Z,71.30
2018-03-20T11:52:46.753Z,71.30
2018-03-20T11:55:17.338Z,70.10
2018-03-20T11:57:47.061Z,70.00
2018-03-20T12:00:18.165Z,70.20
2018-03-20T12:02:48.553Z,70.20
2018-03-20T12:05:19.762Z,69.60
2018-03-20T12:07:57.647Z,68.90
2018-03-20T12:10:27.984Z,71.30
2018-03-20T12:13:00.085Z,71.30
2018-03-20T12:15:29.874Z,69.00
2018-03-20T12:18:00.487Z,67.80
2018-03-20T12:20:35.375Z,68.30
2018-03-20T12:23:05.934Z,66.00
2018-03-20T12:25:37.256Z,67.50
2018-03-20T12:28:08.380Z,67.40
2018-03-20T12:31:05.614Z,65.20
2018-03-20T12:33:37.879Z,64.70
2018-03-20T12:36:07.414Z,65.10
2018-03-20T12:38:38.083Z,66.70
2018-03-20T12:41:08.328Z,65.70
2018-03-20T12:43:39.720Z,64.00
2018-03-20T12:46:10.892Z,65.40
2018-03-20T12:48:40.553Z,69.20
2018-03-20T12:51:13.235Z,72.50
2018-03-20T12:53:42.943Z,72.40
2018-03-20T12:56:13.743Z,72.60
2018-03-20T12:58:46.778Z,72.20
2018-03-20T13:01:18.859Z,72.90
2018-03-20T13:03:48.582Z,69.20
2018-03-20T13:06:18.383Z,62.00
2018-03-20T13:08:58.275Z,61.10
2018-03-20T13:11:27.823Z,62.00
2018-03-20T13:13:57.570Z,68.80
2018-03-20T13:16:28.009Z,70.20
2018-03-20T13:18:58.684Z,70.50
2018-03-20T13:21:28.452Z,70.40
2018-03-20T13:23:59.392Z,68.80
2018-03-20T13:26:29.097Z,68.40
2018-03-20T13:28:58.845Z,69.00
2018-03-20T13:31:28.337Z,68.30
2018-03-20T13:33:58.722Z,69.00
2018-03-20T13:36:28.289Z,69.00
2018-03-20T13:38:59.220Z,68.60
2018-03-20T13:41:29.542Z,69.30
2018-03-20T13:43:59.097Z,70.00
2018-03-20T13:46:29.509Z,68.00
2018-03-20T13:49:15.992Z,68.70
2018-03-20T13:51:50.436Z,67.00
2018-03-20T13:54:21.833Z,68.00
2018-03-20T13:56:51.588Z,68.00
2018-03-20T13:59:21.697Z,68.70
2018-03-20T14:01:51.963Z,69.30
2018-03-20T14:04:25.061Z,69.70
2018-03-20T14:06:55.886Z,71.10
2018-03-20T14:09:33.334Z,70.00
2018-03-20T14:12:03.050Z,71.60
2018-03-20T14:14:34.639Z,71.70
2018-03-20T14:17:04.638Z,71.60
2018-03-20T14:19:39.666Z,66.50
2018-03-20T14:22:09.171Z,66.30
2018-03-20T14:24:38.811Z,64.20
2018-03-20T14:27:08.662Z,63.20
2018-03-20T14:29:39.414Z,68.40
2018-03-20T14:32:08.939Z,68.30
2018-03-20T14:34:38.407Z,67.60
2018-03-20T14:37:07.956Z,64.70
2018-03-20T14:39:38.577Z,66.30
2018-03-20T14:42:08.077Z,67.70
2018-03-20T14:44:37.696Z,67.30
2018-03-20T14:47:07.487Z,67.60
2018-03-20T14:49:39.387Z,67.80
2018-03-20T14:52:16.778Z,67.70
2018-03-20T14:54:54.936Z,69.50
2018-03-20T14:57:30.538Z,69.50
2018-03-20T15:00:07.814Z,72.60
2018-03-20T15:02:42.935Z,75.10
2018-03-20T15:05:33.437Z,79.40
2018-03-20T15:08:14.424Z,82.80
2018-03-20T15:10:46.047Z,82.80
2018-03-20T15:13:15.880Z,85.00
2018-03-20T15:15:45.386Z,84.50
2018-03-20T15:18:15.051Z,86.00
2018-03-20T15:20:45.527Z,87.60
2018-03-20T15:23:15.064Z,87.50
2018-03-20T15:25:44.502Z,88.50
2018-03-20T15:28:14.247Z,87.70
2018-03-20T15:30:43.780Z,87.10
2018-03-20T15:33:13.352Z,87.50
2018-03-20T15:35:43.068Z,88.80
2018-03-20T15:38:13.569Z,87.80
2018-03-20T15:40:43.665Z,87.80
2018-03-20T15:43:13.169Z,87.60
2018-03-20T15:45:43.142Z,87.60
2018-03-20T15:48:12.721Z,86.80
2018-03-20T15:50:42.423Z,87.30
2018-03-20T15:53:12.053Z,88.20
2018-03-20T15:55:41.634Z,87.00
2018-03-20T15:58:11.411Z,87.00
2018-03-20T16:00:41.206Z,88.30
2018-03-20T16:03:10.680Z,87.30
2018-03-20T16:05:40.392Z,86.50
2018-03-20T16:08:10.020Z,86.90
2018-03-20T16:10:39.754Z,86.70
2018-03-20T16:13:09.456Z,86.50
2018-03-20T16:15:38.955Z,88.30
2018-03-20T16:18:08.675Z,88.60
2018-03-20T16:20:38.645Z,86.70
2018-03-20T16:23:08.664Z,86.90
2018-03-20T16:25:39.159Z,87.70
2018-03-20T16:28:09.053Z,87.70
2018-03-20T16:30:39.203Z,89.80
2018-03-20T16:33:09.403Z,87.70
2018-03-20T16:35:39.212Z,88.80
2018-03-20T16:38:09.470Z,90.40
2018-03-20T16:40:39.466Z,88.70
2018-03-20T16:43:09.594Z,89.20
2018-03-20T16:45:40.298Z,88.70
2018-03-20T16:48:10.466Z,89.70
2018-03-20T16:50:40.626Z,87.80
2018-03-20T16:53:10.567Z,90.00
2018-03-20T16:55:40.572Z,90.40
2018-03-20T16:58:10.587Z,88.10
2018-03-20T17:00:41.453Z,87.70
2018-03-20T17:03:12.718Z,86.80
2018-03-20T17:05:43.848Z,87.90
2018-03-20T17:08:13.622Z,88.00
2018-03-20T17:10:43.344Z,87.70
2018-03-20T17:13:13.419Z,87.70
2018-03-20T17:15:44.225Z,87.90
2018-03-20T17:18:14.548Z,88.00
2018-03-20T17:20:44.622Z,87.70
2018-03-20T17:23:14.678Z,88.40
2018-03-20T17:25:44.691Z,87.40
2018-03-20T17:28:15.747Z,88.00
2018-03-20T17:30:45.871Z,87.90
2018-03-20T17:33:16.734Z,88.10
2018-03-20T17:35:48.869Z,89.20
2018-03-20T17:38:19.397Z,89.20
2018-03-20T17:40:59.888Z,89.80
2018-03-20T17:43:36.864Z,90.30
2018-03-20T17:46:07.829Z,88.30
2018-03-20T17:48:38.521Z,88.60
2018-03-20T17:51:09.493Z,88.80
2018-03-20T17:53:41.102Z,88.20
2018-03-20T17:56:12.708Z,89.10
2018-03-20T17:58:43.153Z,89.20
2018-03-20T18:01:13.941Z,88.60
2018-03-20T18:03:46.952Z,88.20
2018-03-20T18:06:20.500Z,88.20
2018-03-20T18:08:51.610Z,87.40
2018-03-20T18:11:27.257Z,88.20
2018-03-20T18:14:00.507Z,88.20
2018-03-20T18:16:40.701Z,87.90
2018-03-20T18:19:12.570Z,87.80
2018-03-20T18:21:45.979Z,88.10
2018-03-20T18:24:22.660Z,88.70
2018-03-20T18:26:54.083Z,89.30
2018-03-20T18:29:25.075Z,88.90
2018-03-20T18:31:57.391Z,88.20
2018-03-20T18:34:43.701Z,89.10
2018-03-20T18:37:15.341Z,88.60
2018-03-20T18:39:47.288Z,89.90
2018-03-20T18:42:26.278Z,89.90
2018-03-20T18:44:58.652Z,89.80
2018-03-20T18:47:44.133Z,89.80
2018-03-20T18:50:16.174Z,88.20
2018-03-20T18:52:54.944Z,88.20
2018-03-20T18:55:26.615Z,89.20
2018-03-20T18:57:59.062Z,87.60
2018-03-20T19:00:31.166Z,87.30
2018-03-20T19:06:16.586Z,88.40
2018-03-20T19:11:42.531Z,88.40
2018-03-20T19:14:16.537Z,88.30
2018-03-20T19:16:47.819Z,87.90
2018-03-20T19:19:17.871Z,88.70
2018-03-20T19:21:49.340Z,88.50
2018-03-20T19:24:22.392Z,88.50
2018-03-20T19:26:55.513Z,87.90
2018-03-20T19:29:30.372Z,89.00
2018-03-20T19:32:00.910Z,88.90
2018-03-20T19:34:37.175Z,88.70
2018-03-20T19:37:07.583Z,88.80
2018-03-20T19:42:42.152Z,90.40
2018-03-20T19:45:12.548Z,90.10
2018-03-20T19:47:43.086Z,90.00
2018-03-20T19:50:36.210Z,90.20
2018-03-20T19:53:13.504Z,90.10
2018-03-20T19:55:47.455Z,88.90
2018-03-20T19:58:19.608Z,87.90
2018-03-20T20:00:49.944Z,87.90
2018-03-20T20:03:25.464Z,89.40
2018-03-20T20:05:55.792Z,90.00
2018-03-20T20:08:43.040Z,89.90
2018-03-20T20:11:13.919Z,90.00
2018-03-20T20:13:44.280Z,89.10
2018-03-20T20:16:38.240Z,88.20
2018-03-20T20:19:30.620Z,89.00
2018-03-20T20:22:01.947Z,90.20
2018-03-20T20:24:41.317Z,89.80
2018-03-20T20:27:17.588Z,90.20
2018-03-20T20:29:48.935Z,90.90
2018-03-20T20:32:22.821Z,91.30
2018-03-20T20:34:53.236Z,91.30
2018-03-20T20:37:40.476Z,91.10
2018-03-20T20:40:10.367Z,91.00
2018-03-20T20:42:42.382Z,90.80
2018-03-20T20:45:13.620Z,91.30
2018-03-20T20:47:49.357Z,91.70
2018-03-20T20:50:27.661Z,92.00
2018-03-20T20:52:57.449Z,91.90
2018-03-20T20:55:35.466Z,92.00
2018-03-20T20:58:10.105Z,91.90
2018-03-20T21:00:39.773Z,91.10
2018-03-20T21:03:17.520Z,91.10
2018-03-20T21:05:47.233Z,91.10
2018-03-20T21:08:17.832Z,91.80
2018-03-20T21:10:47.699Z,91.80
2018-03-20T21:13:17.236Z,91.50
2018-03-20T21:15:46.908Z,92.20
2018-03-20T21:18:19.070Z,92.10
2018-03-20T21:20:50.708Z,91.60
2018-03-20T21:23:20.480Z,91.60
2018-03-20T21:25:50.734Z,90.90
2018-03-20T21:28:20.345Z,91.20
2018-03-20T21:30:55.597Z,91.80
2018-03-20T21:33:27.525Z,91.70
2018-03-20T21:35:58.146Z,91.00
2018-03-20T21:38:28.837Z,91.20
2018-03-20T21:41:00.560Z,91.10
2018-03-20T21:43:40.669Z,91.00
2018-03-20T21:46:13.152Z,91.80
2018-03-20T21:48:44.778Z,92.00
2018-03-20T21:51:15.282Z,91.60
2018-03-20T21:53:53.012Z,91.50
2018-03-20T21:56:22.594Z,91.80
2018-03-20T21:58:52.249Z,92.30
2018-03-20T22:01:22.080Z,92.70
2018-03-20T22:03:51.663Z,93.10
2018-03-20T22:06:22.141Z,92.70
2018-03-20T22:08:51.718Z,92.70
2018-03-20T22:11:27.609Z,91.80
2018-03-20T22:13:58.389Z,91.90
2018-03-20T22:16:32.464Z,91.40
2018-03-20T22:19:02.751Z,91.40
2018-03-20T22:21:32.643Z,91.60
2018-03-20T22:24:02.998Z,90.90
2018-03-20T22:26:56.615Z,90.80
2018-03-20T22:29:28.447Z,90.70
2018-03-20T22:32:04.537Z,91.20
2018-03-20T22:34:35.226Z,91.00
2018-03-20T22:37:10.426Z,91.20
2018-03-20T22:39:50.890Z,91.90
2018-03-20T22:42:22.864Z,92.90
2018-03-20T22:44:53.619Z,92.90
2018-03-20T22:47:44.785Z,92.90
2018-03-20T22:50:24.890Z,92.90
2018-03-20T22:52:54.603Z,92.90
2018-03-20T22:55:25.184Z,93.00
2018-03-20T22:57:55.119Z,93.00
2018-03-20T23:00:40.422Z,92.90
2018-03-20T23:03:11.765Z,92.90
2018-03-20T23:05:44.113Z,93.00
2018-03-20T23:08:16.198Z,93.00
2018-03-20T23:10:45.744Z,93.00
2018-03-20T23:13:18.048Z,93.20
2018-03-20T23:16:05.323Z,93.30
2018-03-20T23:18:35.082Z,93.40
2018-03-20T23:21:05.108Z,93.40
2018-03-20T23:23:37.215Z,93.20
2018-03-20T23:26:11.118Z,93.20
2018-03-20T23:28:50.405Z,93.10
2018-03-20T23:31:21.382Z,91.80
2018-03-20T23:33:54.497Z,91.70
2018-03-20T23:36:39.524Z,91.60
2018-03-20T23:39:11.580Z,91.40
2018-03-20T23:41:42.353Z,91.30
2018-03-20T23:44:23.362Z,88.70
2018-03-20T23:46:53.344Z,88.70
2018-03-20T23:49:26.420Z,90.70
2018-03-20T23:51:57.801Z,88.90
2018-03-20T23:54:27.714Z,88.80
2018-03-20T23:57:10.557Z,88.50
2018-03-20T23:59:42.885Z,88.60
